Time;durP1;ratioP1;P1;durP2;ratioP2;P2;SDS_P1;SDS_P2;PMS_P1;PMS_P2;Temp;Humidity;BMP_temperature;BMP_pressure;BME280_temperature;BME280_humidity;BME280_pressure;Samples;Min_cycle;Max_cycle;Signal;HPM_P1;HPM_P2
2022/01/12 00:07:07;;;;;;;8.23;5.87;;;6.50;76.70;;;;;;20913872;28;20213;-71
2022/01/12 00:36:28;;;;;;;7.50;5.40;;;6.30;76.30;;;;;;20983436;28;20208;-68
2022/01/12 00:46:30;;;;;;;7.23;5.33;;;6.30;75.40;;;;;;20982975;28;20215;-71
2022/01/12 00:56:32;;;;;;;6.77;5.07;;;6.20;75.90;;;;;;20982353;28;20267;-70
2022/01/12 01:06:35;;;;;;;7.40;5.27;;;6.20;75.00;;;;;;20981453;28;20214;-71
2022/01/12 01:26:42;;;;;;;6.10;4.83;;;6.20;74.50;;;;;;20894934;28;20755;-72
2022/01/12 01:36:47;;;;;;;7.07;5.27;;;6.20;74.30;;;;;;20850276;28;20255;-71
2022/01/12 01:57:10;;;;;;;8.03;5.10;;;6.10;74.80;;;;;;20853262;28;20286;-72
2022/01/12 02:07:16;;;;;;;7.47;4.70;;;6.10;75.10;;;;;;20838889;28;20215;-69
2022/01/12 02:17:22;;;;;;;8.23;5.00;;;6.10;76.00;;;;;;20838120;28;20305;-72
2022/01/12 02:58:22;;;;;;;6.30;4.93;;;5.50;75.80;;;;;;20835537;28;20233;-69
2022/01/12 03:08:25;;;;;;;7.30;5.13;;;5.50;75.90;;;;;;20834237;28;20202;-70
2022/01/12 03:18:27;;;;;;;8.20;5.37;;;5.30;76.40;;;;;;20832847;28;20723;-70
2022/01/12 03:28:29;;;;;;;7.73;5.00;;;5.30;77.10;;;;;;20831016;28;20205;-70
2022/01/12 03:38:31;;;;;;;7.27;5.40;;;5.10;77.30;;;;;;20832052;28;20282;-71
2022/01/12 03:48:32;;;;;;;10.93;5.37;;;5.00;78.00;;;;;;20832419;28;20209;-71
2022/01/12 03:58:34;;;;;;;7.23;5.30;;;5.00;78.60;;;;;;20831347;28;20259;-71
2022/01/12 04:08:36;;;;;;;7.03;4.83;;;4.90;78.70;;;;;;20830407;28;20209;-71
2022/01/12 04:18:38;;;;;;;7.77;5.60;;;4.90;78.90;;;;;;20829841;28;20298;-71
2022/01/12 04:28:44;;;;;;;8.37;5.90;;;4.90;79.30;;;;;;20828682;28;20207;-71
2022/01/12 04:38:46;;;;;;;10.47;5.90;;;4.90;80.60;;;;;;20829881;28;20231;-71
2022/01/12 04:48:52;;;;;;;11.53;6.30;;;4.80;80.90;;;;;;20829065;28;20205;-71
2022/01/12 04:58:54;;;;;;;9.57;6.10;;;4.70;81.60;;;;;;20831845;28;20314;-71
2022/01/12 05:09:16;;;;;;;8.07;5.97;;;4.80;82.10;;;;;;20847358;28;20209;-71
2022/01/12 05:19:18;;;;;;;9.60;6.17;;;4.90;82.50;;;;;;20842719;28;20244;-72
2022/01/12 05:29:20;;;;;;;11.67;7.03;;;4.90;82.30;;;;;;20840506;28;20260;-72
2022/01/12 05:39:21;;;;;;;11.50;7.13;;;5.00;81.90;;;;;;20841881;28;20236;-70
2022/01/12 05:49:36;;;;;;;10.63;6.57;;;4.90;81.80;;;;;;20840863;28;20209;-71
2022/01/12 05:59:37;;;;;;;8.57;6.40;;;4.90;81.80;;;;;;20839793;28;20209;-70
2022/01/12 06:09:40;;;;;;;9.13;6.53;;;4.90;81.80;;;;;;20838846;28;20218;-70
2022/01/12 06:19:43;;;;;;;9.43;6.73;;;;;;;;;;20837453;28;20596;-69
2022/01/12 06:30:03;;;;;;;10.03;7.07;;;4.90;81.80;;;;;;20836626;28;20205;-71
2022/01/12 06:40:06;;;;;;;11.13;6.90;;;4.90;81.60;;;;;;20836027;28;20638;-70
2022/01/12 06:50:08;;;;;;;9.77;6.87;;;4.90;81.30;;;;;;20836467;28;20283;-68
2022/01/12 07:00:10;;;;;;;13.23;7.60;;;4.90;81.00;;;;;;20844625;28;20335;-70
2022/01/12 07:10:11;;;;;;;12.50;6.90;;;4.90;80.80;;;;;;20834958;28;20659;-69
2022/01/12 07:20:14;;;;;;;15.00;10.80;;;4.90;80.80;;;;;;20833565;28;20513;-70
2022/01/12 07:30:15;;;;;;;10.40;7.23;;;5.10;81.50;;;;;;20911517;28;20341;-70
2022/01/12 07:40:17;;;;;;;14.23;7.20;;;5.00;81.30;;;;;;20914631;28;20232;-67
2022/01/12 07:50:19;;;;;;;9.33;6.70;;;4.90;80.30;;;;;;20914811;28;20299;-66
2022/01/12 08:00:21;;;;;;;11.57;6.67;;;4.90;80.30;;;;;;20913391;28;20313;-67
2022/01/12 08:10:23;;;;;;;9.50;6.83;;;5.00;80.20;;;;;;20916387;28;20211;-69
2022/01/12 08:20:28;;;;;;;15.33;7.53;;;5.00;80.20;;;;;;20924394;28;20376;-68
2022/01/12 08:30:31;;;;;;;11.57;7.37;;;5.00;80.20;;;;;;20911212;28;20202;-68
2022/01/12 08:40:33;;;;;;;10.90;7.63;;;5.00;80.70;;;;;;20914950;28;20331;-69
2022/01/12 08:50:35;;;;;;;9.53;7.00;;;5.30;79.80;;;;;;20926990;28;20258;-73
2022/01/12 09:00:37;;;;;;;12.37;7.57;;;5.20;79.00;;;;;;20925552;28;20315;-71
2022/01/12 09:10:39;;;;;;;11.57;8.13;;;5.30;78.10;;;;;;20925428;28;20718;-71
2022/01/12 09:20:41;;;;;;;13.97;9.23;;;5.40;78.20;;;;;;20918446;28;20324;-71
2022/01/12 09:30:43;;;;;;;12.97;8.43;;;5.60;78.40;;;;;;20839963;28;20278;-70
2022/01/12 09:40:46;;;;;;;14.90;8.33;;;5.70;78.40;;;;;;20839912;28;20253;-70
2022/01/12 09:50:47;;;;;;;13.53;7.73;;;5.60;77.40;;;;;;20838056;28;20207;-68
2022/01/12 10:00:57;;;;;;;14.87;7.67;;;5.70;77.00;;;;;;20838993;28;20238;-70
2022/01/12 10:11:08;;;;;;;13.47;8.27;;;5.70;76.80;;;;;;20837853;28;20662;-68
2022/01/12 10:21:09;;;;;;;9.30;6.73;;;5.90;76.20;;;;;;20837306;28;20280;-69
2022/01/12 10:31:15;;;;;;;9.33;6.30;;;5.90;76.40;;;;;;20836253;28;20206;-71
2022/01/12 10:41:17;;;;;;;11.07;6.63;;;6.00;75.80;;;;;;20835704;28;20237;-71
2022/01/12 10:51:20;;;;;;;8.93;6.60;;;6.00;75.10;;;;;;20834145;28;20217;-69
2022/01/12 11:01:27;;;;;;;9.53;6.33;;;6.00;75.50;;;;;;20832496;28;20265;-70
2022/01/12 11:11:29;;;;;;;9.77;6.97;;;6.20;74.40;;;;;;20833701;28;20281;-69
2022/01/12 11:21:41;;;;;;;9.47;6.87;;;6.00;74.30;;;;;;20835572;28;20234;-70
2022/01/12 11:31:43;;;;;;;10.73;7.17;;;6.10;73.90;;;;;;20911145;28;20291;-70
2022/01/12 11:41:47;;;;;;;12.17;7.23;;;6.20;74.10;;;;;;20913351;28;20230;-71
2022/01/12 11:51:49;;;;;;;8.37;6.13;;;6.30;74.20;;;;;;20911850;28;20279;-71
2022/01/12 12:01:54;;;;;;;13.37;7.40;;;6.60;73.90;;;;;;20912066;28;20233;-71
2022/01/12 12:11:59;;;;;;;12.13;7.63;;;6.90;73.30;;;;;;20910403;28;20245;-71
2022/01/12 12:22:16;;;;;;;11.33;6.63;;;7.10;72.90;;;;;;20910084;28;20304;-70
2022/01/12 12:32:20;;;;;;;9.20;6.53;;;7.20;71.00;;;;;;20910441;28;20215;-70
2022/01/12 12:42:22;;;;;;;8.77;6.40;;;7.30;71.00;;;;;;20910346;28;20232;-69
2022/01/12 12:52:29;;;;;;;8.03;5.87;;;7.20;71.60;;;;;;20910025;28;20555;-70
2022/01/12 13:02:36;;;;;;;10.57;6.93;;;7.20;71.40;;;;;;20909355;28;20246;-70
2022/01/12 13:12:40;;;;;;;8.53;6.33;;;7.10;71.00;;;;;;20910880;28;20214;-70
2022/01/12 13:22:42;;;;;;;8.20;5.77;;;7.20;71.00;;;;;;20905491;28;20246;-69
2022/01/12 13:32:53;;;;;;;8.43;6.17;;;7.30;70.90;;;;;;20890387;28;20683;-67
2022/01/12 13:42:57;;;;;;;7.73;6.27;;;7.30;71.50;;;;;;20851896;28;20225;-69
2022/01/12 13:52:58;;;;;;;8.03;5.57;;;7.30;71.50;;;;;;20926880;28;20211;-69
2022/01/12 14:03:01;;;;;;;9.20;6.10;;;7.30;70.90;;;;;;20894377;28;20232;-69
2022/01/12 14:13:03;;;;;;;8.90;6.47;;;7.60;71.20;;;;;;20837305;28;20611;-68
2022/01/12 14:23:09;;;;;;;9.13;5.60;;;7.60;70.20;;;;;;20912373;28;20237;-68
2022/01/12 14:33:10;;;;;;;9.33;6.00;;;7.50;70.50;;;;;;20917036;28;20260;-67
2022/01/12 14:43:12;;;;;;;11.50;8.00;;;7.40;71.00;;;;;;20915791;28;20436;-67
2022/01/12 14:53:17;;;;;;;8.57;6.10;;;7.40;71.80;;;;;;20893061;28;20241;-68
2022/01/12 15:03:24;;;;;;;8.80;6.27;;;7.30;71.20;;;;;;20833373;28;20233;-68
2022/01/12 15:13:39;;;;;;;10.37;6.87;;;7.20;72.10;;;;;;20831695;28;20662;-70
2022/01/12 15:23:40;;;;;;;13.20;7.60;;;7.00;72.40;;;;;;20833791;28;20253;-73
2022/01/12 15:33:42;;;;;;;18.03;7.00;;;7.10;73.90;;;;;;20847709;28;20704;-69
2022/01/12 15:43:45;;;;;;;12.63;8.10;;;;;;;;;;20831499;28;20239;-68
2022/01/12 15:53:47;;;;;;;13.73;9.50;;;6.90;74.20;;;;;;20831168;28;20240;-69
2022/01/12 16:03:49;;;;;;;10.03;7.77;;;6.80;74.60;;;;;;20829945;28;20260;-70
2022/01/12 16:13:51;;;;;;;11.50;7.97;;;6.90;75.40;;;;;;20828705;28;20210;-69
2022/01/12 16:24:10;;;;;;;12.63;8.53;;;6.70;74.50;;;;;;20870568;28;20431;-71
2022/01/12 16:34:11;;;;;;;17.53;8.33;;;6.80;75.20;;;;;;20910495;28;20738;-72
2022/01/12 16:44:13;;;;;;;12.10;8.37;;;6.80;75.30;;;;;;20907144;28;20233;-71
2022/01/12 16:54:16;;;;;;;10.87;7.77;;;6.90;75.30;;;;;;20907682;28;20196;-68
2022/01/12 17:04:17;;;;;;;13.23;7.90;;;6.90;75.00;;;;;;20914246;28;20249;-65
2022/01/12 17:14:22;;;;;;;11.33;8.10;;;6.90;75.20;;;;;;20924908;28;20239;-67
2022/01/12 17:24:39;;;;;;;22.37;13.97;;;7.00;75.20;;;;;;20923130;28;20338;-68
2022/01/12 17:34:42;;;;;;;22.43;13.43;;;7.00;75.90;;;;;;20924047;28;20202;-72
2022/01/12 17:44:50;;;;;;;13.73;9.87;;;7.00;75.70;;;;;;20923271;28;20637;-69
2022/01/12 17:54:56;;;;;;;13.83;9.70;;;6.90;75.50;;;;;;20922731;28;20251;-66
2022/01/12 18:04:58;;;;;;;13.97;9.80;;;6.90;75.60;;;;;;20919901;28;20226;-67
2022/01/12 18:15:01;;;;;;;12.10;8.87;;;6.70;75.00;;;;;;20920864;28;20203;-69
2022/01/12 18:25:04;;;;;;;17.17;10.40;;;6.70;75.70;;;;;;20920388;28;20603;-68
2022/01/12 18:35:07;;;;;;;15.67;9.67;;;6.70;75.90;;;;;;20920131;28;20204;-66
2022/01/12 18:45:09;;;;;;;16.17;9.90;;;6.60;75.40;;;;;;20909697;28;20874;-66
2022/01/12 18:55:11;;;;;;;16.30;10.97;;;6.70;75.60;;;;;;20836227;28;20210;-68
2022/01/12 19:05:13;;;;;;;14.73;10.17;;;6.80;75.70;;;;;;20832907;28;20313;-70
2022/01/12 19:15:16;;;;;;;12.90;9.33;;;6.80;75.90;;;;;;20831210;28;20209;-71
2022/01/12 19:25:18;;;;;;;16.03;10.50;;;6.80;76.50;;;;;;20834801;28;20288;-70
2022/01/12 19:35:19;;;;;;;13.93;9.60;;;6.70;75.40;;;;;;20833484;28;20669;-70
2022/01/12 19:45:21;;;;;;;15.50;9.53;;;6.70;75.80;;;;;;20893712;28;20601;-70
2022/01/12 19:55:45;;;;;;;14.63;9.40;;;6.60;76.20;;;;;;20913757;28;20243;-70
2022/01/12 20:05:47;;;;;;;15.53;10.60;;;6.50;76.40;;;;;;20872514;28;20234;-69
2022/01/12 20:15:52;;;;;;;23.13;13.30;;;6.20;76.90;;;;;;20912242;28;20203;-69
2022/01/12 20:25:54;;;;;;;19.63;13.07;;;6.10;77.70;;;;;;20834729;28;20242;-68
2022/01/12 20:35:56;;;;;;;20.03;12.60;;;5.80;78.20;;;;;;20833460;28;20611;-69
2022/01/12 20:45:58;;;;;;;21.57;13.87;;;5.70;78.60;;;;;;20845188;28;20235;-67
2022/01/12 20:56:00;;;;;;;20.67;12.07;;;5.60;78.80;;;;;;20867693;28;20275;-70
2022/01/12 21:06:02;;;;;;;24.57;12.73;;;5.30;79.70;;;;;;20926417;28;20235;-68
2022/01/12 21:16:05;;;;;;;19.53;12.87;;;5.10;81.20;;;;;;20925369;28;20235;-68
2022/01/12 21:26:07;;;;;;;26.17;15.50;;;4.80;81.90;;;;;;20925265;28;20330;-67
2022/01/12 21:36:11;;;;;;;20.90;13.50;;;4.80;82.30;;;;;;20922883;28;20208;-69
2022/01/12 21:46:31;;;;;;;21.43;12.63;;;4.70;82.40;;;;;;20922328;28;20286;-69
2022/01/12 21:56:33;;;;;;;24.97;12.83;;;4.70;82.60;;;;;;20949369;28;20215;-68
2022/01/12 22:06:34;;;;;;;21.30;12.70;;;4.20;83.50;;;;;;20959208;28;20281;-68
2022/01/12 22:16:37;;;;;;;19.77;13.17;;;4.30;84.30;;;;;;20917775;28;20196;-68
2022/01/12 22:26:39;;;;;;;19.90;12.73;;;4.20;83.80;;;;;;20920784;28;20246;-69
2022/01/12 22:36:40;;;;;;;21.50;13.00;;;4.10;84.40;;;;;;20919748;28;20196;-69
2022/01/12 22:46:42;;;;;;;26.20;13.43;;;4.10;84.80;;;;;;20916996;28;20236;-70
2022/01/12 22:56:55;;;;;;;24.43;13.20;;;3.80;85.00;;;;;;20917089;28;20204;-69
2022/01/12 23:06:56;;;;;;;23.87;14.13;;;3.80;85.20;;;;;;20916869;28;20238;-69
2022/01/12 23:16:58;;;;;;;25.73;13.70;;;3.80;85.70;;;;;;20901149;28;20241;-68
2022/01/12 23:27:00;;;;;;;24.67;13.27;;;3.70;86.10;;;;;;20829432;28;20294;-69
2022/01/12 23:57:42;;;;;;;22.77;12.47;;;3.90;87.80;;;;;;20831564;28;20208;-69
